createdAt,value
2018-09-18T00:00:41.325Z,22.07
2018-09-18T00:03:10.288Z,23.67
2018-09-18T00:05:38.713Z,24.43
2018-09-18T00:08:07.426Z,22.83
2018-09-18T00:10:36.527Z,22.77
2018-09-18T00:13:05.133Z,21.53
2018-09-18T00:15:33.510Z,21.27
2018-09-18T00:18:01.921Z,23.03
2018-09-18T00:20:30.326Z,22.50
2018-09-18T00:22:59.309Z,23.57
2018-09-18T00:25:27.928Z,22.67
2018-09-18T00:27:56.735Z,23.53
2018-09-18T00:30:25.504Z,23.57
2018-09-18T00:32:53.964Z,22.93
2018-09-18T00:35:22.563Z,22.90
2018-09-18T00:37:50.970Z,25.27
2018-09-18T00:40:20.009Z,22.40
2018-09-18T00:42:48.667Z,22.20
2018-09-18T00:45:17.216Z,22.97
2018-09-18T00:47:45.604Z,26.50
2018-09-18T00:50:14.239Z,23.43
2018-09-18T00:52:42.865Z,26.33
2018-09-18T00:55:12.023Z,25.23
2018-09-18T00:57:40.652Z,24.70
2018-09-18T01:00:09.097Z,27.87
2018-09-18T01:02:37.879Z,24.80
2018-09-18T01:05:06.504Z,24.67
2018-09-18T01:07:34.954Z,25.77
2018-09-18T01:10:03.682Z,27.43
2018-09-18T01:12:32.400Z,23.67
2018-09-18T01:15:00.927Z,24.97
2018-09-18T01:17:36.130Z,24.93
2018-09-18T01:20:04.700Z,24.43
2018-09-18T01:22:33.286Z,24.33
2018-09-18T01:25:01.953Z,27.87
2018-09-18T01:27:30.338Z,23.47
2018-09-18T01:29:58.736Z,25.67
2018-09-18T01:32:27.702Z,25.20
2018-09-18T01:34:56.129Z,25.53
2018-09-18T01:37:24.665Z,29.07
2018-09-18T01:39:53.329Z,35.53
2018-09-18T01:42:21.815Z,31.07
2018-09-18T01:44:50.879Z,30.83
2018-09-18T01:47:19.462Z,30.37
2018-09-18T01:49:47.883Z,27.43
2018-09-18T01:52:16.569Z,27.73
2018-09-18T01:54:45.167Z,29.87
2018-09-18T01:57:13.657Z,27.90
2018-09-18T01:59:42.274Z,27.33
2018-09-18T02:02:12.418Z,28.40
2018-09-18T02:04:40.913Z,28.07
2018-09-18T02:07:09.554Z,28.00
2018-09-18T02:09:38.634Z,28.03
2018-09-18T02:12:07.296Z,27.90
2018-09-18T02:14:35.705Z,28.77
2018-09-18T02:17:04.630Z,27.60
2018-09-18T02:19:33.025Z,29.70
2018-09-18T02:22:01.545Z,28.57
2018-09-18T02:24:30.381Z,27.07
2018-09-18T02:26:58.815Z,29.10
2018-09-18T02:29:27.459Z,30.03
2018-09-18T02:31:55.835Z,31.20
2018-09-18T02:34:24.608Z,28.20
2018-09-18T02:36:53.224Z,27.93
2018-09-18T02:39:21.607Z,27.10
2018-09-18T02:41:50.950Z,25.27
2018-09-18T02:44:19.368Z,29.27
2018-09-18T02:46:47.930Z,28.27
2018-09-18T02:49:16.347Z,27.00
2018-09-18T02:51:44.785Z,24.97
2018-09-18T02:54:13.359Z,23.73
2018-09-18T02:56:41.796Z,28.23
2018-09-18T02:59:10.354Z,24.63
2018-09-18T03:01:38.757Z,27.10
2018-09-18T03:04:07.143Z,27.70
2018-09-18T03:06:35.544Z,24.23
2018-09-18T03:09:05.829Z,25.20
2018-09-18T03:11:34.303Z,26.27
2018-09-18T03:14:03.245Z,26.70
2018-09-18T03:16:31.761Z,24.87
2018-09-18T03:19:00.383Z,26.53
2018-09-18T03:21:29.442Z,27.23
2018-09-18T03:23:58.345Z,27.37
2018-09-18T03:26:26.719Z,30.20
2018-09-18T03:28:56.063Z,33.17
2018-09-18T03:31:24.958Z,29.03
2018-09-18T03:33:53.499Z,28.57
2018-09-18T03:36:22.064Z,26.33
2018-09-18T03:38:51.433Z,30.07
2018-09-18T03:41:19.812Z,26.90
2018-09-18T03:43:48.932Z,29.60
2018-09-18T03:46:17.410Z,29.83
2018-09-18T03:48:46.127Z,29.67
2018-09-18T03:51:14.598Z,27.23
2018-09-18T03:53:43.058Z,30.47
2018-09-18T03:56:11.443Z,29.10
2018-09-18T03:58:40.311Z,29.33
2018-09-18T04:01:09.072Z,27.60
2018-09-18T04:03:37.719Z,27.67
2018-09-18T04:06:06.481Z,27.40
2018-09-18T04:08:34.917Z,29.53
2018-09-18T04:11:03.490Z,29.30
2018-09-18T04:13:31.924Z,27.87
2018-09-18T04:16:00.357Z,27.70
2018-09-18T04:18:28.971Z,28.60
2018-09-18T04:20:57.377Z,27.47
2018-09-18T04:23:25.907Z,30.60
2018-09-18T04:25:54.377Z,31.90
2018-09-18T04:28:23.027Z,30.00
2018-09-18T04:30:51.418Z,28.33
2018-09-18T04:33:20.320Z,27.90
2018-09-18T04:35:49.125Z,28.10
2018-09-18T04:38:17.559Z,29.70
2018-09-18T04:40:46.270Z,28.40
2018-09-18T04:43:14.716Z,30.20
2018-09-18T04:45:44.001Z,30.23
2018-09-18T04:48:12.606Z,26.07
2018-09-18T04:50:42.437Z,26.47
2018-09-18T04:53:11.179Z,31.83
2018-09-18T04:55:39.669Z,29.30
2018-09-18T04:58:08.561Z,28.20
2018-09-18T05:00:37.249Z,27.97
2018-09-18T05:03:05.737Z,26.13
2018-09-18T05:05:34.385Z,24.60
2018-09-18T05:08:03.023Z,27.77
2018-09-18T05:10:31.932Z,29.97
2018-09-18T05:13:00.892Z,31.60
2018-09-18T05:15:29.453Z,25.10
2018-09-18T05:17:58.128Z,26.80
2018-09-18T05:20:26.562Z,29.20
2018-09-18T05:22:55.076Z,29.00
2018-09-18T05:25:23.799Z,23.53
2018-09-18T05:27:53.260Z,25.80
2018-09-18T05:30:21.653Z,26.63
2018-09-18T05:32:50.223Z,26.20
2018-09-18T05:35:19.064Z,24.57
2018-09-18T05:37:47.677Z,24.47
2018-09-18T05:40:16.108Z,22.47
2018-09-18T05:42:44.539Z,26.07
2018-09-18T05:45:13.784Z,26.17
2018-09-18T05:47:42.402Z,22.33
2018-09-18T05:50:11.004Z,23.20
2018-09-18T05:52:40.048Z,21.60
2018-09-18T05:55:08.458Z,20.77
2018-09-18T05:57:37.082Z,20.40
2018-09-18T06:02:41.231Z,23.57
2018-09-18T06:05:10.093Z,19.50
2018-09-18T06:07:39.106Z,20.33
2018-09-18T06:10:07.683Z,20.37
2018-09-18T06:12:36.591Z,20.17
2018-09-18T06:15:05.387Z,18.97
2018-09-18T06:17:34.059Z,21.80
2018-09-18T06:20:05.748Z,17.53
2018-09-18T06:22:34.188Z,19.10
2018-09-18T06:25:02.601Z,20.27
2018-09-18T06:27:31.886Z,18.10
2018-09-18T06:30:00.442Z,16.90
2018-09-18T06:32:29.384Z,14.80
2018-09-18T06:34:58.233Z,16.47
2018-09-18T06:37:26.997Z,13.80
2018-09-18T06:39:55.441Z,14.80
2018-09-18T06:42:23.875Z,14.50
2018-09-18T06:44:53.281Z,13.80
2018-09-18T06:47:22.304Z,13.90
2018-09-18T06:49:51.263Z,14.60
2018-09-18T06:52:20.034Z,17.13
2018-09-18T06:54:48.487Z,16.73
2018-09-18T06:57:17.184Z,13.07
2018-09-18T06:59:46.007Z,12.43
2018-09-18T07:02:14.980Z,13.77
2018-09-18T07:04:43.992Z,15.13
2018-09-18T07:07:12.468Z,13.87
2018-09-18T07:09:41.233Z,14.00
2018-09-18T07:12:09.988Z,14.37
2018-09-18T07:14:38.503Z,13.73
2018-09-18T07:17:07.211Z,13.23
2018-09-18T07:19:35.802Z,10.37
2018-09-18T07:22:04.243Z,9.50
2018-09-18T07:24:33.108Z,12.93
2018-09-18T07:27:01.888Z,12.37
2018-09-18T07:29:30.525Z,10.30
2018-09-18T07:31:59.045Z,9.60
2018-09-18T07:34:27.869Z,11.08
2018-09-18T07:36:56.415Z,10.40
2018-09-18T07:39:25.558Z,9.68
2018-09-18T07:41:54.153Z,11.68
2018-09-18T07:44:22.643Z,12.53
2018-09-18T07:46:51.662Z,9.53
2018-09-18T07:49:20.080Z,10.90
2018-09-18T07:51:48.980Z,9.58
2018-09-18T07:54:17.662Z,9.28
2018-09-18T07:56:46.209Z,9.33
2018-09-18T07:59:14.738Z,9.73
2018-09-18T08:01:43.317Z,10.63
2018-09-18T08:04:11.787Z,8.98
2018-09-18T08:06:40.198Z,10.53
2018-09-18T08:09:10.478Z,9.50
2018-09-18T08:11:39.331Z,8.65
2018-09-18T08:14:08.321Z,9.63
2018-09-18T08:16:36.794Z,10.25
2018-09-18T08:19:06.049Z,9.73
2018-09-18T08:21:34.747Z,8.08
2018-09-18T08:24:03.635Z,11.65
2018-09-18T08:26:32.033Z,8.53
2018-09-18T08:29:01.066Z,9.25
2018-09-18T08:31:30.140Z,8.18
2018-09-18T08:33:58.795Z,9.40
2018-09-18T08:36:27.253Z,11.85
2018-09-18T08:38:56.071Z,9.48
2018-09-18T08:41:24.606Z,10.50
2018-09-18T08:43:53.603Z,8.80
2018-09-18T08:46:22.078Z,9.63
2018-09-18T08:48:56.526Z,9.28
2018-09-18T08:51:25.537Z,11.55
2018-09-18T08:53:54.158Z,10.63
2018-09-18T08:56:24.026Z,8.93
2018-09-18T08:58:52.724Z,12.33
2018-09-18T09:01:21.704Z,10.13
2018-09-18T09:03:50.191Z,11.28
2018-09-18T09:06:18.883Z,9.35
2018-09-18T09:08:47.390Z,8.70
2018-09-18T09:11:15.663Z,9.55
2018-09-18T09:13:44.771Z,11.75
2018-09-18T09:16:13.286Z,9.30
2018-09-18T09:18:41.968Z,9.35
2018-09-18T09:21:11.540Z,11.15
2018-09-18T09:23:40.210Z,10.18
2018-09-18T09:26:08.776Z,8.40
2018-09-18T09:28:37.656Z,10.48
2018-09-18T09:31:06.263Z,10.85
2018-09-18T09:33:35.243Z,9.70
2018-09-18T09:36:03.849Z,9.88
2018-09-18T09:38:32.517Z,11.65
2018-09-18T09:41:01.480Z,11.03
2018-09-18T09:43:30.091Z,10.50
2018-09-18T09:45:59.369Z,9.83
2018-09-18T09:48:31.983Z,10.63
2018-09-18T09:51:01.534Z,10.20
2018-09-18T09:53:30.059Z,8.65
2018-09-18T09:55:58.680Z,9.68
2018-09-18T09:58:27.355Z,9.83
2018-09-18T10:01:01.535Z,9.53
2018-09-18T10:03:30.469Z,10.75
2018-09-18T10:05:59.349Z,9.00
2018-09-18T10:08:28.090Z,10.55
2018-09-18T10:10:56.953Z,8.43
2018-09-18T10:13:25.473Z,8.18
2018-09-18T10:15:54.397Z,8.68
2018-09-18T10:18:23.282Z,12.10
2018-09-18T10:20:51.893Z,9.65
2018-09-18T10:23:21.393Z,9.43
2018-09-18T10:25:49.813Z,8.75
2018-09-18T10:28:18.213Z,11.73
2018-09-18T10:30:46.748Z,8.63
2018-09-18T10:33:15.497Z,8.10
2018-09-18T10:35:44.603Z,10.08
2018-09-18T10:38:13.132Z,10.23
2018-09-18T10:40:41.741Z,7.17
2018-09-18T10:43:10.232Z,9.65
2018-09-18T10:45:38.694Z,8.58
2018-09-18T10:48:07.118Z,8.80
2018-09-18T10:50:35.969Z,8.50
2018-09-18T10:53:04.647Z,9.73
2018-09-18T10:55:33.164Z,9.35
2018-09-18T10:58:01.951Z,7.60
2018-09-18T11:00:30.343Z,10.48
2018-09-18T11:02:58.860Z,9.13
2018-09-18T11:05:27.263Z,9.10
2018-09-18T11:07:56.107Z,9.70
2018-09-18T11:10:24.481Z,10.38
2018-09-18T11:12:53.117Z,8.35
2018-09-18T11:15:21.742Z,8.28
2018-09-18T11:17:50.078Z,8.00
2018-09-18T11:20:19.770Z,9.08
2018-09-18T11:22:48.391Z,7.53
2018-09-18T11:25:17.237Z,9.83
2018-09-18T11:27:48.521Z,9.60
2018-09-18T11:30:16.908Z,12.80
2018-09-18T11:32:45.433Z,11.90
2018-09-18T11:35:14.603Z,7.73
2018-09-18T11:37:43.103Z,8.93
2018-09-18T11:40:12.046Z,10.70
2018-09-18T11:42:40.706Z,9.17
2018-09-18T11:45:09.258Z,10.67
2018-09-18T11:47:38.074Z,9.40
2018-09-18T11:50:06.495Z,8.40
2018-09-18T11:52:35.236Z,8.27
2018-09-18T11:55:03.796Z,9.03
2018-09-18T11:57:32.358Z,10.17
2018-09-18T12:00:01.556Z,8.30
2018-09-18T12:02:30.874Z,11.80
2018-09-18T12:04:59.532Z,7.87
2018-09-18T12:07:27.992Z,9.47
2018-09-18T12:09:57.075Z,9.80
2018-09-18T12:12:25.640Z,12.67
2018-09-18T12:14:54.561Z,6.87
2018-09-18T12:17:23.506Z,8.60
2018-09-18T12:19:51.940Z,8.80
2018-09-18T12:22:21.267Z,11.00
2018-09-18T12:24:50.322Z,10.87
2018-09-18T12:27:19.734Z,8.80
2018-09-18T12:29:48.714Z,9.10
2018-09-18T12:32:17.781Z,7.13
2018-09-18T12:34:46.845Z,7.43
2018-09-18T12:37:15.324Z,7.27
2018-09-18T12:39:43.879Z,10.73
2018-09-18T12:42:12.733Z,9.17
2018-09-18T12:44:41.494Z,10.73
2018-09-18T12:47:09.995Z,9.20
2018-09-18T12:49:38.611Z,6.10
2018-09-18T12:52:06.976Z,9.30
2018-09-18T12:54:35.787Z,7.90
2018-09-18T12:57:04.728Z,9.20
2018-09-18T12:59:38.045Z,8.23
2018-09-18T13:02:06.870Z,8.80
2018-09-18T13:04:35.320Z,9.77
2018-09-18T13:07:04.426Z,8.00
2018-09-18T13:09:32.944Z,7.37
2018-09-18T13:12:01.814Z,7.93
2018-09-18T13:14:32.195Z,7.40
2018-09-18T13:17:01.781Z,7.10
2018-09-18T13:19:30.970Z,8.77
2018-09-18T13:22:02.452Z,10.23
2018-09-18T13:24:31.969Z,7.33
2018-09-18T13:27:01.641Z,8.57
2018-09-18T13:29:31.307Z,6.30
2018-09-18T13:32:00.737Z,6.93
2018-09-18T13:34:30.322Z,7.83
2018-09-18T13:36:58.773Z,9.67
2018-09-18T13:39:27.392Z,6.37
2018-09-18T13:41:55.969Z,9.13
2018-09-18T13:44:24.961Z,8.70
2018-09-18T13:46:54.632Z,6.00
2018-09-18T13:49:35.666Z,9.83
2018-09-18T13:52:04.827Z,7.80
2018-09-18T13:54:35.014Z,5.90
2018-09-18T13:57:04.218Z,7.40
2018-09-18T13:59:33.579Z,6.23
2018-09-18T14:02:02.977Z,6.00
2018-09-18T14:04:32.564Z,9.40
2018-09-18T14:07:14.265Z,7.63
2018-09-18T14:09:44.066Z,7.47
2018-09-18T14:12:12.674Z,7.63
2018-09-18T14:14:41.928Z,7.63
2018-09-18T14:17:10.452Z,7.37
2018-09-18T14:19:39.144Z,7.67
2018-09-18T14:22:07.722Z,5.80
2018-09-18T14:24:36.233Z,8.20
2018-09-18T14:27:05.334Z,8.73
2018-09-18T14:29:34.131Z,7.33
2018-09-18T14:32:03.393Z,6.33
2018-09-18T14:34:31.834Z,7.10
2018-09-18T14:37:00.717Z,7.80
2018-09-18T14:39:29.785Z,5.53
2018-09-18T14:41:58.173Z,9.80
2018-09-18T14:44:26.592Z,8.70
2018-09-18T14:46:55.080Z,6.30
2018-09-18T14:49:23.714Z,6.60
2018-09-18T14:51:53.016Z,7.07
2018-09-18T14:54:21.441Z,6.70
2018-09-18T14:56:49.929Z,7.53
2018-09-18T14:59:18.351Z,5.83
2018-09-18T15:01:46.985Z,7.20
2018-09-18T15:04:16.555Z,6.10
2018-09-18T15:06:45.336Z,7.13
2018-09-18T15:09:13.966Z,6.47
2018-09-18T15:11:42.916Z,6.00
2018-09-18T15:14:11.642Z,6.67
2018-09-18T15:16:40.543Z,9.13
2018-09-18T15:19:09.585Z,5.40
2018-09-18T15:21:38.550Z,7.83
2018-09-18T15:24:07.086Z,5.97
2018-09-18T15:26:35.834Z,8.23
2018-09-18T15:29:04.569Z,7.10
2018-09-18T15:31:33.652Z,6.43
2018-09-18T15:34:02.239Z,6.20
2018-09-18T15:36:30.704Z,6.37
2018-09-18T15:38:59.598Z,7.80
2018-09-18T15:41:28.027Z,5.97
2018-09-18T15:43:56.724Z,8.37
2018-09-18T15:46:25.159Z,8.30
2018-09-18T15:48:53.710Z,7.03
2018-09-18T15:51:22.271Z,8.70
2018-09-18T15:53:50.854Z,8.07
2018-09-18T15:56:19.626Z,8.47
2018-09-18T15:58:48.367Z,7.57
2018-09-18T16:01:17.377Z,6.17
2018-09-18T16:03:46.373Z,8.03
2018-09-18T16:06:15.058Z,6.97
2018-09-18T16:08:43.601Z,8.10
2018-09-18T16:11:12.046Z,7.83
2018-09-18T16:13:40.524Z,6.37
2018-09-18T16:16:09.191Z,8.17
2018-09-18T16:18:41.560Z,7.57
2018-09-18T16:21:09.988Z,6.17
2018-09-18T16:23:38.381Z,10.03
2018-09-18T16:26:06.987Z,8.07
2018-09-18T16:28:35.498Z,8.87
2018-09-18T16:31:04.184Z,6.53
2018-09-18T16:33:32.965Z,8.53
2018-09-18T16:36:01.362Z,7.50
2018-09-18T16:38:29.866Z,10.50
2018-09-18T16:40:58.576Z,11.43
2018-09-18T16:43:27.804Z,7.93
2018-09-18T16:45:56.248Z,7.60
2018-09-18T16:48:25.119Z,10.83
2018-09-18T16:50:53.591Z,8.70
2018-09-18T16:53:21.993Z,9.43
2018-09-18T16:55:51.342Z,9.03
2018-09-18T16:58:20.477Z,9.63
2018-09-18T17:00:49.046Z,8.80
2018-09-18T17:03:17.640Z,9.33
2018-09-18T17:05:46.101Z,9.50
2018-09-18T17:08:15.238Z,9.77
2018-09-18T17:10:44.226Z,8.30
2018-09-18T17:13:12.711Z,11.50
2018-09-18T17:15:41.245Z,9.70
2018-09-18T17:18:10.208Z,9.47
2018-09-18T17:20:39.435Z,9.97
2018-09-18T17:23:07.931Z,11.73
2018-09-18T17:25:37.236Z,11.10
2018-09-18T17:28:05.972Z,11.93
2018-09-18T17:30:34.642Z,11.43
2018-09-18T17:33:03.226Z,10.33
2018-09-18T17:35:31.721Z,11.33
2018-09-18T17:38:00.144Z,11.63
2018-09-18T17:40:29.014Z,12.53
2018-09-18T17:42:57.596Z,7.37
2018-09-18T17:45:26.129Z,10.10
2018-09-18T17:47:54.560Z,9.20
2018-09-18T17:50:23.122Z,9.77
2018-09-18T17:52:51.745Z,10.20
2018-09-18T17:55:20.551Z,12.07
2018-09-18T17:57:48.996Z,10.70
2018-09-18T18:00:17.596Z,12.00
2018-09-18T18:02:46.175Z,7.33
2018-09-18T18:05:14.624Z,7.77
2018-09-18T18:07:43.457Z,8.37
2018-09-18T18:10:12.330Z,10.67
2018-09-18T18:12:41.114Z,8.07
2018-09-18T18:15:09.810Z,6.63
2018-09-18T18:17:38.707Z,8.13
2018-09-18T18:20:07.277Z,4.03
2018-09-18T18:22:36.174Z,5.53
2018-09-18T18:25:05.109Z,7.33
2018-09-18T18:27:33.858Z,5.83
2018-09-18T18:30:02.705Z,6.33
2018-09-18T18:32:31.745Z,5.50
2018-09-18T18:35:00.161Z,3.97
2018-09-18T18:37:28.631Z,6.87
2018-09-18T18:39:57.060Z,6.23
2018-09-18T18:42:26.210Z,9.53
2018-09-18T18:44:54.847Z,5.70
2018-09-18T18:47:23.294Z,5.67
2018-09-18T18:49:52.366Z,4.07
2018-09-18T18:52:21.009Z,4.43
2018-09-18T18:54:49.689Z,5.70
2018-09-18T18:57:18.100Z,4.50
2018-09-18T18:59:46.517Z,5.77
2018-09-18T19:02:15.948Z,3.20
2018-09-18T19:04:44.417Z,4.03
2018-09-18T19:07:13.139Z,6.17
2018-09-18T19:09:41.797Z,3.63
2018-09-18T19:12:10.701Z,4.57
2018-09-18T19:14:39.735Z,6.47
2018-09-18T19:17:08.209Z,3.80
2018-09-18T19:19:36.714Z,2.93
2018-09-18T19:22:06.181Z,2.87
2018-09-18T19:24:35.196Z,3.43
2018-09-18T19:27:03.984Z,3.37
2018-09-18T19:29:34.253Z,6.97
2018-09-18T19:32:02.841Z,5.63
2018-09-18T19:34:31.458Z,4.53
2018-09-18T19:37:00.549Z,6.40
2018-09-18T19:39:29.301Z,2.67
2018-09-18T19:41:57.715Z,2.60
2018-09-18T19:44:26.601Z,2.80
2018-09-18T19:46:55.233Z,7.37
2018-09-18T19:49:24.044Z,4.97
2018-09-18T19:51:53.336Z,2.80
2018-09-18T19:54:21.783Z,3.83
2018-09-18T19:56:50.178Z,3.87
2018-09-18T19:59:18.838Z,3.90
2018-09-18T20:01:47.223Z,2.87
2018-09-18T20:04:15.682Z,3.83
2018-09-18T20:06:44.384Z,5.80
2018-09-18T20:09:13.742Z,5.03
2018-09-18T20:11:42.229Z,4.67
2018-09-18T20:14:10.687Z,4.13
2018-09-18T20:16:40.161Z,4.97
2018-09-18T20:19:08.944Z,2.53
2018-09-18T20:21:37.467Z,2.30
2018-09-18T20:24:05.890Z,2.90
2018-09-18T20:26:35.136Z,3.10
2018-09-18T20:29:05.669Z,3.73
2018-09-18T20:31:34.522Z,2.47
2018-09-18T20:34:03.000Z,3.47
2018-09-18T20:36:31.629Z,2.97
2018-09-18T20:39:00.209Z,2.50
2018-09-18T20:41:28.720Z,3.03
2018-09-18T20:43:57.333Z,4.13
2018-09-18T20:46:25.961Z,2.13
2018-09-18T20:48:55.306Z,3.77
2018-09-18T20:51:24.063Z,3.50
2018-09-18T20:53:52.961Z,2.50
2018-09-18T20:56:21.514Z,2.67
2018-09-18T20:58:49.900Z,4.50
2018-09-18T21:01:18.360Z,3.60
2018-09-18T21:03:47.387Z,4.67
2018-09-18T21:06:15.822Z,2.43
2018-09-18T21:08:44.692Z,2.23
2018-09-18T21:11:13.245Z,2.40
2018-09-18T21:13:41.644Z,3.00
2018-09-18T21:16:10.285Z,3.87
2018-09-18T21:18:38.997Z,2.07
2018-09-18T21:21:07.419Z,3.00
2018-09-18T21:23:36.059Z,2.13
2018-09-18T21:26:08.156Z,2.33
2018-09-18T21:28:37.012Z,6.73
2018-09-18T21:31:05.568Z,2.73
2018-09-18T21:33:33.997Z,3.63
2018-09-18T21:36:02.575Z,2.27
2018-09-18T21:38:31.996Z,3.63
2018-09-18T21:41:00.683Z,5.47
2018-09-18T21:43:29.745Z,2.53
2018-09-18T21:45:58.413Z,4.33
2018-09-18T21:48:26.850Z,4.67
2018-09-18T21:50:55.627Z,1.53
2018-09-18T21:53:24.734Z,2.30
2018-09-18T21:55:53.354Z,2.70
2018-09-18T21:58:21.959Z,2.20
2018-09-18T22:00:50.540Z,2.13
2018-09-18T22:03:19.852Z,2.17
2018-09-18T22:05:48.299Z,2.63
2018-09-18T22:08:16.757Z,3.13
2018-09-18T22:10:45.328Z,2.40
2018-09-18T22:13:13.775Z,2.23
2018-09-18T22:15:42.383Z,2.33
2018-09-18T22:18:10.797Z,2.93
2018-09-18T22:20:39.655Z,1.83
2018-09-18T22:23:08.144Z,2.93
2018-09-18T22:25:36.529Z,1.97
2018-09-18T22:28:04.889Z,2.27
2018-09-18T22:30:33.691Z,1.97
2018-09-18T22:33:02.125Z,2.33
2018-09-18T22:35:30.620Z,1.60
2018-09-18T22:37:59.024Z,1.87
2018-09-18T22:40:27.467Z,2.00
2018-09-18T22:42:56.039Z,2.43
2018-09-18T22:45:24.578Z,8.80
2018-09-18T22:47:53.746Z,9.77
2018-09-18T22:50:22.314Z,7.27
2018-09-18T22:52:50.886Z,6.20
2018-09-18T22:55:19.416Z,7.30
2018-09-18T22:57:48.256Z,3.57
2018-09-18T23:00:16.684Z,5.67
2018-09-18T23:02:45.445Z,4.90
2018-09-18T23:05:13.872Z,3.37
2018-09-18T23:07:42.244Z,3.43
2018-09-18T23:10:10.834Z,4.07
2018-09-18T23:12:39.641Z,4.70
2018-09-18T23:15:08.091Z,3.57
2018-09-18T23:17:36.812Z,4.50
2018-09-18T23:20:05.237Z,4.27
2018-09-18T23:22:34.201Z,4.33
2018-09-18T23:25:03.433Z,3.63
2018-09-18T23:27:32.031Z,4.50
2018-09-18T23:30:00.516Z,5.37
2018-09-18T23:32:29.379Z,3.73
2018-09-18T23:34:57.762Z,5.40
2018-09-18T23:37:26.518Z,4.13
2018-09-18T23:39:55.071Z,4.47
2018-09-18T23:42:23.707Z,4.30
2018-09-18T23:44:52.594Z,2.77
2018-09-18T23:47:21.048Z,4.17
2018-09-18T23:49:49.425Z,4.87
2018-09-18T23:52:17.966Z,4.07
2018-09-18T23:54:46.437Z,4.10
2018-09-18T23:57:15.532Z,4.57
2018-09-18T23:59:43.930Z,6.60
